Time;durP1;ratioP1;P1;durP2;ratioP2;P2;SDS_P1;SDS_P2;PMS_P1;PMS_P2;Temp;Humidity;BMP_temperature;BMP_pressure;BME280_temperature;BME280_humidity;BME280_pressure;Samples;Min_cycle;Max_cycle;Signal;HPM_P1;HPM_P2
2021/01/15 00:01:06;;;;;;;14.85;5.38;;;3.60;58.20;;;;;;5012077;28;20026;-81
2021/01/15 00:03:36;;;;;;;9.63;5.07;;;3.60;58.20;;;;;;5013585;28;20022;-82
2021/01/15 00:06:06;;;;;;;9.07;5.47;;;3.50;58.40;;;;;;5013440;28;20030;-82
2021/01/15 00:08:39;;;;;;;9.48;5.13;;;3.50;58.50;;;;;;5013289;28;20029;-81
2021/01/15 00:11:05;;;;;;;16.08;5.97;;;3.40;58.60;;;;;;5005025;28;20034;-82
2021/01/15 00:13:31;;;;;;;10.38;5.47;;;3.40;58.70;;;;;;5013509;28;20025;-81
2021/01/15 00:15:57;;;;;;;9.80;4.38;;;3.30;58.70;;;;;;5013386;28;20052;-81
2021/01/15 00:18:22;;;;;;;9.90;4.70;;;3.30;58.60;;;;;;5012142;28;20060;-81
2021/01/15 00:20:48;;;;;;;9.13;5.57;;;3.30;58.50;;;;;;5012894;28;20096;-81
2021/01/15 00:23:16;;;;;;;10.18;5.60;;;3.30;58.60;;;;;;5013458;28;20030;-81
2021/01/15 00:25:44;;;;;;;13.90;5.32;;;3.30;58.50;;;;;;5013225;28;20426;-82
2021/01/15 00:28:10;;;;;;;8.55;4.90;;;3.20;58.50;;;;;;5028460;28;20037;-82
2021/01/15 00:30:36;;;;;;;10.60;4.07;;;3.20;58.50;;;;;;5028140;28;20041;-82
2021/01/15 00:33:02;;;;;;;9.38;5.25;;;3.20;58.50;;;;;;5013331;28;20026;-82
2021/01/15 00:35:27;;;;;;;11.88;6.20;;;3.20;58.80;;;;;;5012844;28;20394;-82
2021/01/15 00:37:53;;;;;;;11.20;5.15;;;3.20;59.20;;;;;;5013013;28;20034;-82
2021/01/15 00:40:19;;;;;;;12.50;5.68;;;3.20;59.40;;;;;;5028113;28;20026;-82
2021/01/15 00:42:45;;;;;;;10.18;5.40;;;3.20;59.40;;;;;;5013034;28;20423;-82
2021/01/15 00:45:16;;;;;;;8.65;4.70;;;3.30;59.50;;;;;;5028383;28;20053;-82
2021/01/15 00:47:43;;;;;;;9.10;4.85;;;3.30;59.30;;;;;;5013283;28;20057;-82
2021/01/15 00:50:10;;;;;;;6.20;4.30;;;3.40;59.20;;;;;;5011414;28;20104;-82
2021/01/15 00:52:36;;;;;;;8.68;4.75;;;3.40;59.10;;;;;;5013273;28;20026;-82
2021/01/15 00:55:03;;;;;;;9.43;4.57;;;3.40;58.90;;;;;;5015331;28;20037;-82
2021/01/15 00:57:28;;;;;;;8.82;4.80;;;3.40;58.90;;;;;;5016948;28;20079;-82
2021/01/15 00:59:54;;;;;;;10.00;4.53;;;3.50;58.90;;;;;;5016919;28;20117;-82
2021/01/15 01:02:20;;;;;;;15.68;7.30;;;3.50;58.80;;;;;;5015218;28;20026;-82
2021/01/15 01:04:45;;;;;;;11.52;5.80;;;3.50;59.30;;;;;;5015661;28;20422;-82
2021/01/15 01:07:11;;;;;;;11.75;5.22;;;3.50;58.60;;;;;;5031863;28;20503;-82
2021/01/15 01:09:37;;;;;;;8.90;5.53;;;3.50;58.40;;;;;;5032062;28;20048;-82
2021/01/15 01:12:03;;;;;;;9.07;5.03;;;3.50;58.30;;;;;;5016572;28;20451;-82
2021/01/15 01:14:28;;;;;;;9.38;5.13;;;3.50;58.10;;;;;;5016691;28;20475;-82
2021/01/15 01:16:54;;;;;;;8.43;5.25;;;3.40;57.90;;;;;;5031718;28;20483;-82
2021/01/15 01:19:20;;;;;;;10.75;5.90;;;3.40;57.80;;;;;;5016326;28;20038;-82
2021/01/15 01:21:46;;;;;;;8.68;4.95;;;3.40;57.70;;;;;;5016902;28;20030;-82
2021/01/15 01:24:11;;;;;;;7.93;4.85;;;3.30;57.60;;;;;;5016473;28;20376;-82
2021/01/15 01:26:37;;;;;;;7.90;4.55;;;3.30;57.60;;;;;;5016277;28;20030;-82
2021/01/15 01:29:03;;;;;;;7.72;4.25;;;3.20;57.60;;;;;;5031446;28;20037;-82
2021/01/15 01:31:29;;;;;;;8.82;4.60;;;3.10;57.50;;;;;;5015532;28;20058;-82
2021/01/15 01:33:55;;;;;;;12.90;5.88;;;3.10;57.50;;;;;;5030795;28;20107;-82
2021/01/15 01:36:21;;;;;;;15.15;6.47;;;3.00;57.50;;;;;;5029811;28;20030;-82
2021/01/15 01:38:47;;;;;;;6.65;4.88;;;3.00;57.70;;;;;;5016089;28;20068;-82
2021/01/15 01:41:13;;;;;;;10.70;5.47;;;2.90;57.80;;;;;;5016026;28;20030;-82
2021/01/15 01:43:38;;;;;;;10.23;5.07;;;2.90;57.90;;;;;;5015901;28;20026;-82
2021/01/15 01:46:06;;;;;;;7.57;5.25;;;2.80;58.00;;;;;;5030788;28;20057;-82
2021/01/15 01:48:36;;;;;;;11.60;6.28;;;2.80;58.00;;;;;;5014507;28;20036;-82
2021/01/15 01:51:03;;;;;;;10.43;6.45;;;2.70;58.00;;;;;;5031489;28;20100;-82
2021/01/15 01:53:31;;;;;;;13.93;6.22;;;2.70;58.30;;;;;;5014720;28;20030;-82
2021/01/15 01:55:58;;;;;;;8.85;5.40;;;2.70;58.40;;;;;;5014330;28;20486;-82
2021/01/15 01:58:24;;;;;;;13.25;5.68;;;2.70;58.50;;;;;;5015829;28;20038;-82
2021/01/15 02:00:58;;;;;;;8.23;5.07;;;2.60;58.40;;;;;;5030535;28;20076;-82
2021/01/15 02:03:25;;;;;;;13.20;5.90;;;2.60;58.40;;;;;;5015471;28;20030;-82
2021/01/15 02:05:50;;;;;;;9.23;5.80;;;2.60;58.40;;;;;;5015007;28;20048;-82
2021/01/15 02:08:16;;;;;;;11.90;6.10;;;2.50;58.50;;;;;;5015432;28;20065;-82
2021/01/15 02:10:49;;;;;;;12.80;7.07;;;2.50;58.70;;;;;;5014046;28;20052;-82
2021/01/15 02:13:51;;;;;;;11.70;6.70;;;2.50;59.20;;;;;;5015061;28;20030;-82
2021/01/15 02:16:23;;;;;;;8.80;5.30;;;2.40;59.40;;;;;;5013822;28;20052;-82
2021/01/15 02:18:57;;;;;;;10.45;5.65;;;2.50;59.30;;;;;;5013879;28;20109;-82
2021/01/15 02:21:53;;;;;;;22.35;12.07;;;2.50;59.20;;;;;;5014169;28;20049;-82
2021/01/15 02:24:34;;;;;;;12.65;7.00;;;2.40;59.20;;;;;;4994730;28;20038;-82
2021/01/15 02:27:19;;;;;;;13.00;7.47;;;2.40;59.10;;;;;;5012173;28;20033;-82
2021/01/15 02:30:28;;;;;;;12.55;6.95;;;2.40;58.90;;;;;;5015254;28;20028;-82
2021/01/15 02:33:31;;;;;;;13.85;8.90;;;2.40;58.90;;;;;;5014984;28;20427;-80
2021/01/15 02:36:21;;;;;;;10.70;5.63;;;2.30;59.00;;;;;;5014918;28;20423;-83
2021/01/15 02:39:22;;;;;;;7.70;5.50;;;2.30;59.00;;;;;;5013610;28;20438;-80
2021/01/15 02:41:48;;;;;;;8.07;5.95;;;2.30;59.10;;;;;;5025806;28;20030;-80
2021/01/15 02:44:16;;;;;;;9.98;6.07;;;2.40;59.10;;;;;;5013777;28;20464;-83
2021/01/15 02:46:56;;;;;;;13.75;7.13;;;2.40;59.20;;;;;;5014805;28;20031;-83
2021/01/15 02:49:22;;;;;;;12.57;7.05;;;2.40;59.40;;;;;;5015149;28;20095;-80
2021/01/15 02:51:48;;;;;;;11.18;6.35;;;2.40;59.40;;;;;;5013075;28;20456;-82
2021/01/15 02:54:14;;;;;;;10.00;5.97;;;2.40;59.40;;;;;;5013157;28;20037;-82
2021/01/15 02:56:40;;;;;;;9.15;5.55;;;2.40;59.30;;;;;;5014351;28;20034;-82
2021/01/15 02:59:06;;;;;;;9.98;6.13;;;2.40;59.20;;;;;;5029799;28;20034;-82
2021/01/15 03:01:37;;;;;;;12.20;6.25;;;2.40;59.20;;;;;;5014395;28;20018;-82
2021/01/15 03:04:33;;;;;;;8.85;5.15;;;2.50;59.30;;;;;;5013094;28;20033;-82
2021/01/15 03:07:02;;;;;;;8.52;5.57;;;2.50;59.30;;;;;;5006153;28;20061;-82
2021/01/15 03:09:32;;;;;;;8.48;5.15;;;2.60;59.30;;;;;;5014551;28;20022;-82
2021/01/15 03:12:00;;;;;;;11.02;5.80;;;2.60;59.30;;;;;;5014759;28;20033;-82
2021/01/15 03:14:28;;;;;;;9.18;5.63;;;2.70;59.30;;;;;;5014386;28;20240;-82
2021/01/15 03:16:55;;;;;;;7.47;5.43;;;2.70;59.20;;;;;;5013075;28;20495;-82
2021/01/15 03:19:21;;;;;;;7.18;4.68;;;2.70;59.10;;;;;;5012758;28;20030;-82
2021/01/15 03:21:50;;;;;;;9.32;5.90;;;2.80;59.10;;;;;;5014073;28;20041;-82
2021/01/15 03:24:17;;;;;;;12.88;6.35;;;2.80;59.10;;;;;;5014392;28;20022;-82
2021/01/15 03:26:42;;;;;;;12.43;6.20;;;2.80;59.00;;;;;;5014342;28;20022;-82
2021/01/15 03:29:13;;;;;;;9.88;5.22;;;2.90;58.90;;;;;;5013105;28;20040;-82
2021/01/15 03:31:42;;;;;;;8.82;5.10;;;2.90;58.90;;;;;;5027473;28;20030;-82
2021/01/15 03:34:08;;;;;;;14.27;5.63;;;2.90;58.90;;;;;;5014262;28;20048;-82
2021/01/15 03:36:35;;;;;;;10.45;5.80;;;2.90;58.90;;;;;;5029395;28;20056;-82
2021/01/15 03:39:01;;;;;;;14.43;6.63;;;2.90;58.80;;;;;;5014665;28;20022;-82
2021/01/15 03:41:27;;;;;;;7.38;5.35;;;3.00;58.70;;;;;;5014341;28;20026;-82
2021/01/15 03:43:53;;;;;;;8.05;4.97;;;3.00;58.60;;;;;;5029424;28;20352;-82
2021/01/15 03:46:19;;;;;;;7.20;4.70;;;3.00;58.50;;;;;;5014149;28;20025;-82
2021/01/15 03:48:47;;;;;;;10.70;4.75;;;3.00;58.50;;;;;;5014890;28;20387;-82
2021/01/15 03:51:14;;;;;;;8.18;4.63;;;3.00;58.50;;;;;;5029212;28;20518;-81
2021/01/15 03:53:44;;;;;;;9.57;5.45;;;3.00;58.40;;;;;;5014376;28;20053;-82
2021/01/15 03:56:10;;;;;;;9.00;5.25;;;3.00;58.30;;;;;;5014812;28;20026;-81
2021/01/15 03:58:36;;;;;;;10.55;5.95;;;3.00;58.30;;;;;;5014267;28;20034;-82
2021/01/15 04:01:02;;;;;;;8.57;5.47;;;3.10;58.40;;;;;;5014143;28;20034;-81
2021/01/15 04:03:28;;;;;;;10.60;6.13;;;3.10;58.40;;;;;;5015268;28;20026;-83
2021/01/15 04:05:54;;;;;;;10.45;5.57;;;3.10;58.30;;;;;;5017106;28;20034;-81
2021/01/15 04:08:19;;;;;;;9.57;5.85;;;3.10;58.30;;;;;;5032440;28;20484;-81
2021/01/15 04:10:45;;;;;;;10.88;6.50;;;3.10;58.30;;;;;;5031331;28;20387;-82
2021/01/15 04:13:11;;;;;;;11.98;6.75;;;3.10;58.30;;;;;;5017465;28;20029;-80
2021/01/15 04:15:37;;;;;;;9.90;5.63;;;3.10;58.30;;;;;;5015397;28;20109;-81
2021/01/15 04:18:02;;;;;;;9.77;5.82;;;3.10;58.30;;;;;;5015738;28;20422;-81
2021/01/15 04:20:28;;;;;;;12.48;6.60;;;3.10;58.30;;;;;;5014255;28;20042;-81
2021/01/15 04:22:54;;;;;;;9.38;5.82;;;3.20;58.40;;;;;;5012933;28;20133;-81
2021/01/15 04:25:19;;;;;;;10.23;6.32;;;3.20;58.40;;;;;;5013808;28;20021;-82
2021/01/15 04:27:45;;;;;;;11.18;6.72;;;3.20;58.30;;;;;;5013470;28;20100;-82
2021/01/15 04:30:13;;;;;;;9.70;6.25;;;3.20;58.30;;;;;;5013974;28;20450;-82
2021/01/15 04:32:46;;;;;;;7.45;5.75;;;3.30;58.30;;;;;;5028449;28;20084;-82
2021/01/15 04:35:14;;;;;;;10.97;6.07;;;3.30;58.30;;;;;;5013707;28;20037;-82
2021/01/15 04:37:40;;;;;;;10.25;6.00;;;3.30;58.30;;;;;;5012493;28;20285;-81
2021/01/15 04:40:07;;;;;;;9.05;6.18;;;3.30;58.30;;;;;;5013891;28;20025;-82
2021/01/15 04:42:34;;;;;;;9.60;6.22;;;3.30;58.30;;;;;;5014026;28;20526;-82
2021/01/15 04:45:00;;;;;;;9.07;6.25;;;3.30;58.30;;;;;;5012512;28;20030;-82
2021/01/15 04:47:27;;;;;;;9.85;6.35;;;3.40;58.90;;;;;;5014398;28;20026;-82
2021/01/15 04:49:53;;;;;;;8.85;5.22;;;3.40;58.30;;;;;;5012781;28;20030;-82
2021/01/15 04:52:19;;;;;;;15.52;7.25;;;3.40;58.20;;;;;;5013850;28;20053;-82
2021/01/15 04:54:55;;;;;;;11.45;6.85;;;3.40;58.10;;;;;;5029357;28;20125;-82
2021/01/15 04:57:23;;;;;;;9.77;5.60;;;3.40;58.00;;;;;;4994374;28;20029;-81
2021/01/15 04:59:49;;;;;;;15.13;6.57;;;3.50;58.00;;;;;;5003152;28;20515;-81
2021/01/15 05:02:17;;;;;;;8.50;5.18;;;3.50;58.00;;;;;;5013631;28;20089;-81
2021/01/15 05:04:44;;;;;;;8.55;4.60;;;3.50;58.00;;;;;;5012856;28;20045;-81
2021/01/15 05:07:11;;;;;;;8.50;5.82;;;3.50;58.00;;;;;;5013819;28;20022;-82
2021/01/15 05:09:38;;;;;;;10.18;5.53;;;3.50;58.10;;;;;;5014147;28;20026;-83
2021/01/15 05:12:13;;;;;;;9.38;5.45;;;3.50;58.00;;;;;;5012270;28;20479;-82
2021/01/15 05:14:41;;;;;;;9.85;5.88;;;3.50;57.90;;;;;;5013691;28;20467;-82
2021/01/15 05:17:08;;;;;;;11.60;6.20;;;3.50;57.80;;;;;;5013638;28;20030;-82
2021/01/15 05:19:38;;;;;;;10.75;6.40;;;3.60;57.70;;;;;;5012224;28;20026;-82
2021/01/15 05:22:05;;;;;;;10.57;6.20;;;3.60;57.50;;;;;;5013341;28;20065;-82
2021/01/15 05:24:31;;;;;;;10.38;5.30;;;3.50;57.50;;;;;;5013393;28;20033;-82
2021/01/15 05:27:01;;;;;;;9.32;5.32;;;3.50;57.50;;;;;;5011685;28;20549;-82
2021/01/15 05:29:27;;;;;;;11.35;5.78;;;3.50;57.50;;;;;;5013707;28;20074;-82
2021/01/15 05:31:54;;;;;;;11.35;6.47;;;3.50;57.40;;;;;;5012706;28;20420;-83
2021/01/15 05:34:26;;;;;;;11.15;5.88;;;3.50;57.20;;;;;;5012685;28;20026;-83
2021/01/15 05:36:53;;;;;;;12.10;6.22;;;3.50;57.20;;;;;;5013830;28;20399;-83
2021/01/15 05:39:26;;;;;;;10.60;6.28;;;3.50;57.10;;;;;;5028322;28;20026;-82
2021/01/15 05:42:02;;;;;;;11.63;6.28;;;3.50;57.00;;;;;;5016141;28;20033;-82
2021/01/15 05:44:33;;;;;;;12.63;7.22;;;3.50;56.90;;;;;;5015311;28;20030;-82
2021/01/15 05:47:00;;;;;;;9.90;5.97;;;3.40;56.80;;;;;;5015689;28;20104;-82
2021/01/15 05:49:29;;;;;;;10.25;6.10;;;3.30;56.70;;;;;;5015442;28;20361;-82
2021/01/15 05:52:15;;;;;;;9.10;5.63;;;3.30;56.80;;;;;;5015370;28;20033;-82
2021/01/15 05:54:41;;;;;;;8.50;5.72;;;3.30;56.80;;;;;;5016745;28;20037;-82
2021/01/15 05:57:07;;;;;;;13.18;6.20;;;3.30;56.80;;;;;;5015305;28;20030;-82
2021/01/15 05:59:38;;;;;;;8.10;5.30;;;3.30;56.70;;;;;;5031674;28;20033;-82
2021/01/15 06:02:07;;;;;;;11.38;5.80;;;3.20;56.50;;;;;;5016472;28;20379;-82
2021/01/15 06:04:38;;;;;;;8.07;5.40;;;3.20;56.60;;;;;;5016208;28;20037;-81
2021/01/15 06:07:06;;;;;;;10.35;6.30;;;3.10;56.40;;;;;;5015490;28;20112;-82
2021/01/15 06:09:32;;;;;;;10.18;5.18;;;3.10;56.50;;;;;;5016417;28;20037;-82
2021/01/15 06:12:05;;;;;;;8.15;5.40;;;3.10;56.60;;;;;;5016158;28;20382;-82
2021/01/15 06:14:31;;;;;;;13.05;5.90;;;3.10;56.80;;;;;;5016018;28;20076;-82
2021/01/15 06:17:18;;;;;;;6.70;5.03;;;3.10;56.90;;;;;;5014924;28;20100;-82
2021/01/15 06:19:44;;;;;;;10.20;5.68;;;3.10;56.90;;;;;;5014654;28;20046;-82
2021/01/15 06:22:46;;;;;;;7.28;4.65;;;3.20;57.00;;;;;;5014714;28;20030;-82
2021/01/15 06:25:25;;;;;;;11.00;6.25;;;3.20;57.00;;;;;;5015443;28;20022;-82
2021/01/15 06:27:56;;;;;;;8.95;5.53;;;3.20;56.90;;;;;;5014404;28;20519;-82
2021/01/15 06:30:24;;;;;;;9.30;5.90;;;3.20;56.80;;;;;;5016381;28;20111;-82
2021/01/15 06:32:51;;;;;;;9.80;5.35;;;3.30;56.70;;;;;;5016239;28;20022;-81
2021/01/15 06:35:23;;;;;;;8.27;5.00;;;3.30;56.70;;;;;;5031189;28;20041;-82
2021/01/15 06:38:03;;;;;;;10.82;5.65;;;3.30;56.80;;;;;;5015697;28;20022;-82
2021/01/15 06:40:39;;;;;;;8.48;5.53;;;3.40;56.90;;;;;;5014306;28;20437;-82
2021/01/15 06:43:11;;;;;;;8.43;5.43;;;3.40;56.90;;;;;;5015648;28;20062;-82
2021/01/15 06:45:43;;;;;;;12.55;6.35;;;3.50;57.00;;;;;;5030721;28;20168;-82
2021/01/15 06:48:11;;;;;;;12.63;5.93;;;3.50;56.80;;;;;;5014428;28;20026;-82
2021/01/15 06:50:38;;;;;;;12.93;6.60;;;3.50;56.70;;;;;;5015232;28;20130;-82
2021/01/15 06:53:27;;;;;;;12.80;7.05;;;3.50;56.50;;;;;;5030892;28;20030;-82
2021/01/15 06:56:04;;;;;;;11.15;5.90;;;3.50;56.40;;;;;;5030586;28;20104;-82
2021/01/15 06:58:39;;;;;;;11.00;5.80;;;3.40;56.40;;;;;;5030742;28;20022;-82
2021/01/15 07:01:22;;;;;;;9.90;5.25;;;3.40;56.40;;;;;;5015667;28;20418;-82
2021/01/15 07:04:09;;;;;;;9.82;6.28;;;3.50;56.50;;;;;;5014188;28;20502;-82
2021/01/15 07:06:37;;;;;;;11.43;5.55;;;3.50;56.60;;;;;;5013997;28;20124;-82
2021/01/15 07:09:06;;;;;;;10.88;6.72;;;3.50;56.60;;;;;;5015473;28;20033;-82
2021/01/15 07:11:33;;;;;;;13.02;6.35;;;3.50;56.60;;;;;;5014041;28;20025;-82
2021/01/15 07:14:01;;;;;;;10.55;6.40;;;3.50;56.60;;;;;;5014813;28;20467;-82
2021/01/15 07:16:37;;;;;;;8.95;6.35;;;3.50;56.70;;;;;;5014882;28;20030;-82
2021/01/15 07:19:05;;;;;;;13.23;6.28;;;3.50;56.70;;;;;;5015040;28;20022;-82
2021/01/15 07:22:02;;;;;;;11.70;6.85;;;3.50;56.70;;;;;;5013375;28;20045;-82
2021/01/15 07:24:30;;;;;;;10.98;6.90;;;3.50;56.60;;;;;;5015462;28;20460;-82
2021/01/15 07:26:55;;;;;;;15.75;7.63;;;3.60;56.70;;;;;;5011787;28;20036;-82
2021/01/15 07:29:23;;;;;;;12.77;7.50;;;3.50;56.50;;;;;;5014849;28;20109;-82
2021/01/15 07:31:53;;;;;;;11.85;7.60;;;3.50;56.50;;;;;;5029923;28;20030;-82
2021/01/15 07:34:22;;;;;;;12.13;7.00;;;3.50;56.40;;;;;;5014962;28;20029;-82
2021/01/15 07:36:49;;;;;;;13.88;7.88;;;3.50;56.30;;;;;;5014554;28;20105;-82
2021/01/15 07:39:16;;;;;;;13.60;7.70;;;3.40;56.30;;;;;;5014758;28;20030;-83
2021/01/15 07:41:48;;;;;;;8.70;5.95;;;3.40;56.20;;;;;;5013060;28;20060;-82
2021/01/15 07:44:25;;;;;;;14.40;7.35;;;3.40;56.30;;;;;;5013164;28;20444;-82
2021/01/15 07:47:01;;;;;;;14.02;8.10;;;3.40;56.30;;;;;;5014491;28;20026;-82
2021/01/15 07:49:44;;;;;;;14.98;8.80;;;3.40;56.30;;;;;;5014549;28;20379;-82
2021/01/15 07:52:10;;;;;;;12.77;7.78;;;3.40;56.30;;;;;;5013203;28;20094;-82
2021/01/15 07:54:52;;;;;;;14.23;7.65;;;3.40;56.30;;;;;;5030214;28;20441;-82
2021/01/15 07:57:19;;;;;;;13.07;8.02;;;3.30;56.20;;;;;;5014036;28;20030;-82
2021/01/15 07:59:45;;;;;;;17.58;8.95;;;3.30;56.30;;;;;;5012704;28;20117;-82
2021/01/15 08:02:15;;;;;;;13.07;7.53;;;3.30;56.30;;;;;;5012591;28;20546;-82
2021/01/15 08:04:40;;;;;;;11.80;6.70;;;3.40;56.50;;;;;;5028945;28;20034;-82
2021/01/15 08:07:19;;;;;;;12.70;7.10;;;3.40;56.60;;;;;;5029370;28;20079;-82
2021/01/15 08:09:45;;;;;;;12.85;7.43;;;3.50;56.60;;;;;;5013312;28;20022;-82
2021/01/15 08:12:11;;;;;;;14.93;8.68;;;3.60;56.70;;;;;;5028942;28;20031;-82
2021/01/15 08:14:37;;;;;;;11.30;6.78;;;3.60;56.60;;;;;;5014156;28;20079;-82
2021/01/15 08:17:14;;;;;;;14.40;7.70;;;3.70;56.60;;;;;;5014014;28;20018;-82
2021/01/15 08:19:41;;;;;;;11.48;7.40;;;3.80;56.50;;;;;;5013933;28;20161;-82
2021/01/15 08:22:08;;;;;;;11.00;6.97;;;3.80;56.30;;;;;;5013918;28;20383;-82
2021/01/15 08:24:44;;;;;;;12.38;7.00;;;3.90;56.20;;;;;;5014376;28;20119;-81
2021/01/15 08:27:22;;;;;;;10.77;6.40;;;3.90;56.10;;;;;;5013059;28;20022;-82
2021/01/15 08:29:50;;;;;;;11.23;6.75;;;4.00;56.10;;;;;;5012599;28;20387;-81
2021/01/15 08:32:16;;;;;;;10.32;6.35;;;4.00;56.00;;;;;;5013897;28;20363;-81
2021/01/15 08:34:44;;;;;;;12.85;7.18;;;4.00;55.90;;;;;;5014234;28;20042;-81
2021/01/15 08:37:12;;;;;;;11.60;7.35;;;4.00;55.80;;;;;;5012379;28;20076;-81
2021/01/15 08:39:53;;;;;;;15.55;9.43;;;4.00;55.70;;;;;;5012431;28;20549;-81
2021/01/15 08:42:19;;;;;;;17.45;8.27;;;4.00;55.60;;;;;;5020419;28;20424;-81
2021/01/15 08:44:50;;;;;;;13.27;7.60;;;4.00;55.50;;;;;;5013800;28;20076;-81
2021/01/15 08:47:21;;;;;;;15.18;7.28;;;4.00;55.40;;;;;;5014173;28;20112;-81
2021/01/15 08:50:05;;;;;;;12.02;7.00;;;4.00;55.30;;;;;;5012228;28;20026;-81
2021/01/15 08:52:32;;;;;;;12.82;7.80;;;4.00;55.30;;;;;;5014425;28;20021;-81
2021/01/15 08:55:03;;;;;;;13.63;7.32;;;4.00;55.50;;;;;;5012537;28;20115;-80
2021/01/15 08:57:29;;;;;;;16.73;8.45;;;4.00;55.60;;;;;;5012423;28;20498;-81
2021/01/15 08:59:56;;;;;;;10.98;6.93;;;4.00;55.50;;;;;;5013655;28;20029;-81
2021/01/15 09:02:22;;;;;;;11.82;8.10;;;4.00;55.50;;;;;;5013529;28;20499;-81
2021/01/15 09:04:50;;;;;;;12.85;7.78;;;4.00;55.50;;;;;;5029066;28;20017;-81
2021/01/15 09:07:17;;;;;;;11.38;6.80;;;4.00;55.50;;;;;;5012656;28;20026;-81
2021/01/15 09:09:44;;;;;;;11.43;7.28;;;4.10;55.70;;;;;;5012765;28;20032;-81
2021/01/15 09:12:10;;;;;;;17.85;7.97;;;4.10;55.80;;;;;;5013330;28;20439;-81
2021/01/15 09:14:37;;;;;;;15.02;8.48;;;4.30;55.70;;;;;;5030524;28;20030;-81
2021/01/15 09:17:07;;;;;;;11.35;7.07;;;4.30;55.50;;;;;;5017615;28;20029;-81
2021/01/15 09:19:34;;;;;;;16.73;8.23;;;4.50;55.50;;;;;;5016847;28;20065;-81
2021/01/15 09:22:07;;;;;;;14.85;8.05;;;4.50;55.20;;;;;;5016281;28;20089;-81
2021/01/15 09:24:33;;;;;;;13.45;7.90;;;4.60;55.10;;;;;;5018359;28;20375;-81
2021/01/15 09:27:01;;;;;;;13.43;8.45;;;4.70;55.10;;;;;;5017092;28;20105;-81
2021/01/15 09:29:28;;;;;;;17.08;8.93;;;4.80;54.80;;;;;;5017610;28;20368;-81
2021/01/15 09:31:55;;;;;;;18.70;8.55;;;4.90;54.60;;;;;;5015902;28;20124;-81
2021/01/15 09:34:22;;;;;;;22.55;9.48;;;5.00;54.50;;;;;;5017534;28;20165;-81
2021/01/15 09:36:50;;;;;;;13.05;8.38;;;5.00;54.10;;;;;;5017326;28;20037;-80
2021/01/15 09:39:17;;;;;;;14.57;8.23;;;5.10;54.00;;;;;;5032150;28;20029;-81
2021/01/15 09:41:47;;;;;;;13.82;8.55;;;5.10;53.70;;;;;;5017059;28;20022;-81
2021/01/15 09:44:14;;;;;;;14.85;8.77;;;5.10;53.60;;;;;;5017261;28;20022;-81
2021/01/15 09:46:40;;;;;;;16.45;8.15;;;5.20;53.80;;;;;;5017139;28;20021;-81
2021/01/15 09:49:07;;;;;;;12.30;7.80;;;5.30;53.90;;;;;;5017437;28;20032;-82
2021/01/15 09:51:33;;;;;;;11.88;7.43;;;5.30;53.80;;;;;;5017068;28;20029;-81
2021/01/15 09:53:59;;;;;;;13.13;8.18;;;5.40;53.60;;;;;;5017486;28;20471;-81
2021/01/15 09:56:43;;;;;;;14.02;7.95;;;5.40;53.50;;;;;;5019787;28;20037;-81
2021/01/15 09:59:13;;;;;;;13.68;8.07;;;5.50;53.50;;;;;;5018735;28;20551;-82
2021/01/15 10:01:39;;;;;;;13.57;7.95;;;5.60;53.60;;;;;;5017588;28;20034;-81
2021/01/15 10:04:05;;;;;;;14.50;7.47;;;5.60;53.30;;;;;;5016743;28;20529;-81
2021/01/15 10:06:32;;;;;;;17.60;8.68;;;5.80;53.40;;;;;;5017462;28;20118;-81
2021/01/15 10:08:59;;;;;;;16.42;7.40;;;5.90;53.10;;;;;;5035800;28;20022;-81
2021/01/15 10:11:29;;;;;;;14.35;7.80;;;5.90;52.80;;;;;;5039944;28;20026;-81
2021/01/15 10:14:00;;;;;;;14.10;8.23;;;6.00;52.40;;;;;;5039288;28;20094;-80
2021/01/15 10:16:27;;;;;;;10.65;7.45;;;6.00;52.80;;;;;;5040451;28;20006;-80
2021/01/15 10:18:54;;;;;;;12.52;7.60;;;6.10;52.40;;;;;;5038884;28;20025;-81
2021/01/15 10:21:28;;;;;;;17.30;7.78;;;6.10;52.00;;;;;;5039477;28;20112;-81
2021/01/15 10:23:55;;;;;;;;;;;6.10;51.70;;;;;;5040806;28;20010;-82
2021/01/15 10:26:23;;;;;;;12.77;8.15;;;6.20;52.50;;;;;;5039035;28;19899;-81
2021/01/15 10:28:56;;;;;;;14.77;8.38;;;6.30;51.90;;;;;;5038874;28;20032;-82
2021/01/15 10:31:35;;;;;;;13.27;8.32;;;6.20;51.50;;;;;;5038760;28;20085;-83
2021/01/15 10:34:03;;;;;;;15.98;7.30;;;6.10;51.10;;;;;;5035594;28;20037;-81
2021/01/15 10:36:29;;;;;;;18.98;8.35;;;6.10;51.20;;;;;;5053841;28;20029;-81
2021/01/15 10:38:55;;;;;;;14.45;8.23;;;6.00;51.20;;;;;;5039306;28;20053;-81
2021/01/15 10:41:32;;;;;;;15.52;9.60;;;5.90;51.20;;;;;;5039089;28;20021;-81
2021/01/15 10:44:00;;;;;;;12.32;8.10;;;5.80;51.30;;;;;;5053128;28;20009;-80
2021/01/15 10:46:46;;;;;;;13.95;8.18;;;5.70;51.50;;;;;;5038021;28;20045;-81
2021/01/15 10:49:16;;;;;;;15.13;7.45;;;5.70;51.70;;;;;;5038327;28;20029;-82
2021/01/15 10:51:46;;;;;;;16.52;9.55;;;5.60;51.90;;;;;;5039245;28;20052;-81
2021/01/15 10:54:12;;;;;;;14.15;8.10;;;5.60;51.90;;;;;;5038876;28;20017;-82
2021/01/15 10:56:39;;;;;;;16.83;8.85;;;5.70;52.30;;;;;;5037240;28;20030;-81
2021/01/15 10:59:06;;;;;;;18.55;8.93;;;5.80;52.20;;;;;;5026005;28;20013;-83
2021/01/15 11:01:39;;;;;;;15.15;8.77;;;5.90;52.30;;;;;;5028388;28;20025;-82
2021/01/15 11:04:06;;;;;;;21.05;9.48;;;6.00;52.20;;;;;;5037665;28;20042;-82
2021/01/15 11:06:36;;;;;;;21.30;8.20;;;6.10;52.00;;;;;;5035862;28;20034;-81
2021/01/15 11:09:02;;;;;;;27.00;8.45;;;6.30;52.10;;;;;;5038447;28;20018;-80
2021/01/15 11:11:28;;;;;;;16.35;8.40;;;6.40;51.80;;;;;;5031825;28;20375;-81
2021/01/15 11:13:54;;;;;;;18.10;9.18;;;6.60;51.70;;;;;;5031038;28;20034;-81
2021/01/15 11:16:19;;;;;;;15.68;8.55;;;6.70;51.60;;;;;;5015018;28;20030;-81
2021/01/15 11:18:45;;;;;;;19.73;9.15;;;6.80;51.40;;;;;;5030389;28;20474;-81
2021/01/15 11:21:11;;;;;;;15.80;8.45;;;6.90;51.00;;;;;;5013983;28;20503;-81
2021/01/15 11:23:37;;;;;;;17.98;8.82;;;7.00;50.80;;;;;;5015322;28;20072;-81
2021/01/15 11:26:04;;;;;;;23.60;8.88;;;7.10;50.30;;;;;;5013881;28;20447;-81
2021/01/15 11:28:29;;;;;;;14.05;9.18;;;7.20;50.10;;;;;;5015174;28;20101;-81
2021/01/15 11:30:55;;;;;;;32.70;10.05;;;7.30;49.90;;;;;;5003190;28;20057;-81
2021/01/15 11:33:21;;;;;;;23.92;9.07;;;7.30;49.40;;;;;;5003418;28;20088;-81
2021/01/15 11:35:48;;;;;;;33.45;10.02;;;7.30;49.50;;;;;;5025632;28;20026;-80
2021/01/15 11:38:14;;;;;;;24.17;9.50;;;7.40;49.50;;;;;;5023939;28;20030;-81
2021/01/15 11:40:40;;;;;;;36.83;11.18;;;7.40;49.50;;;;;;5012905;28;20113;-81
2021/01/15 11:43:06;;;;;;;23.35;9.52;;;7.50;49.20;;;;;;5015203;28;20053;-81
2021/01/15 11:45:32;;;;;;;19.98;8.93;;;7.50;49.00;;;;;;5015786;28;20022;-81
2021/01/15 11:47:57;;;;;;;29.30;8.57;;;7.50;48.80;;;;;;5015878;28;20044;-82
2021/01/15 11:50:25;;;;;;;15.35;8.50;;;7.50;49.00;;;;;;5015060;28;20392;-82
2021/01/15 11:52:55;;;;;;;14.70;8.43;;;7.50;49.10;;;;;;5031726;28;20026;-82
2021/01/15 11:55:22;;;;;;;23.25;9.27;;;7.50;49.40;;;;;;5017025;28;20021;-82
2021/01/15 11:57:51;;;;;;;19.10;8.07;;;7.50;49.20;;;;;;5032007;28;20510;-82
2021/01/15 12:00:20;;;;;;;15.65;9.70;;;7.60;49.10;;;;;;5014482;28;20029;-82
2021/01/15 12:02:46;;;;;;;19.00;10.02;;;7.60;48.60;;;;;;5014035;28;20459;-82
2021/01/15 12:05:13;;;;;;;18.38;9.45;;;7.60;48.40;;;;;;5030810;28;20021;-82
2021/01/15 12:07:38;;;;;;;13.38;8.65;;;7.60;48.60;;;;;;5030492;28;20053;-82
2021/01/15 12:10:08;;;;;;;27.40;8.73;;;7.60;48.40;;;;;;5013659;28;20076;-82
2021/01/15 12:12:38;;;;;;;24.02;10.93;;;7.60;48.50;;;;;;5014480;28;20097;-82
2021/01/15 12:15:06;;;;;;;17.52;8.35;;;7.70;48.40;;;;;;5015661;28;20029;-82
2021/01/15 12:17:32;;;;;;;20.33;9.60;;;7.70;48.20;;;;;;5016364;28;20018;-82
2021/01/15 12:19:58;;;;;;;20.85;9.98;;;7.70;47.70;;;;;;5016233;28;20125;-82
2021/01/15 12:22:25;;;;;;;22.00;8.90;;;7.60;47.60;;;;;;5014211;28;20384;-82
2021/01/15 12:24:51;;;;;;;21.77;9.82;;;7.60;47.80;;;;;;5014026;28;20030;-82
2021/01/15 12:27:17;;;;;;;20.73;10.93;;;7.60;47.60;;;;;;5013984;28;20104;-81
2021/01/15 12:29:43;;;;;;;17.60;9.57;;;7.50;47.40;;;;;;5014139;28;20097;-82
2021/01/15 12:32:09;;;;;;;24.13;11.00;;;7.40;47.50;;;;;;5013492;28;20434;-81
2021/01/15 12:34:36;;;;;;;15.90;10.27;;;7.30;47.30;;;;;;5009729;28;20125;-82
2021/01/15 12:37:02;;;;;;;20.25;11.40;;;7.20;47.30;;;;;;5013770;28;20394;-82
2021/01/15 12:39:28;;;;;;;21.75;10.43;;;7.10;47.60;;;;;;5013137;28;20121;-82
2021/01/15 12:41:53;;;;;;;18.85;11.00;;;7.10;47.80;;;;;;5015406;28;20066;-82
2021/01/15 12:44:19;;;;;;;19.65;11.00;;;7.00;47.90;;;;;;5014423;28;20113;-82
2021/01/15 12:46:45;;;;;;;19.42;10.10;;;7.00;48.00;;;;;;5015365;28;20416;-82
2021/01/15 12:49:11;;;;;;;17.02;9.82;;;7.00;48.00;;;;;;5015162;28;20091;-82
2021/01/15 12:51:37;;;;;;;14.70;9.45;;;7.00;48.10;;;;;;5018908;28;20029;-82
2021/01/15 12:54:03;;;;;;;20.98;11.25;;;7.10;48.30;;;;;;5034162;28;20037;-82
2021/01/15 12:56:38;;;;;;;16.45;10.77;;;7.10;48.50;;;;;;5020562;28;20484;-82
2021/01/15 12:59:06;;;;;;;25.48;12.20;;;7.10;48.10;;;;;;5019226;28;20061;-82
2021/01/15 13:01:36;;;;;;;21.42;11.13;;;7.10;48.00;;;;;;5019456;28;20018;-82